Time;durP1;ratioP1;P1;durP2;ratioP2;P2;SDS_P1;SDS_P2;PMS_P1;PMS_P2;Temp;Humidity;BMP_temperature;BMP_pressure;BME280_temperature;BME280_humidity;BME280_pressure;Samples;Min_cycle;Max_cycle;Signal;HPM_P1;HPM_P2
2022/08/14 00:00:37;;;;;;;11.32;5.82;;;;;;;23.89;41.14;100786.41;5095417;28;20501;-57
2022/08/14 00:03:04;;;;;;;13.50;6.05;;;;;;;23.94;41.81;100779.22;5094440;28;20040;-58
2022/08/14 00:05:31;;;;;;;12.10;6.57;;;;;;;23.91;41.81;100776.97;5094467;28;20048;-58
2022/08/14 00:07:58;;;;;;;13.05;6.22;;;;;;;23.86;41.97;100768.75;5095658;28;20051;-58
2022/08/14 00:10:25;;;;;;;13.38;6.38;;;;;;;23.80;42.01;100771.63;5095319;28;20046;-58
2022/08/14 00:12:53;;;;;;;11.93;6.13;;;;;;;23.76;42.16;100765.81;5095522;28;20449;-58
2022/08/14 00:15:25;;;;;;;13.98;6.30;;;;;;;23.70;42.11;100759.50;5095304;28;20516;-57
2022/08/14 00:17:52;;;;;;;16.25;6.85;;;;;;;23.69;43.16;100762.44;5096019;28;20054;-58
2022/08/14 00:20:24;;;;;;;13.77;6.10;;;;;;;23.60;42.45;100758.47;5093897;28;20117;-58
2022/08/14 00:22:52;;;;;;;13.05;6.50;;;;;;;23.54;43.27;100758.34;4988942;28;20776;-58
2022/08/14 00:25:19;;;;;;;12.35;6.30;;;;;;;23.52;43.44;100749.66;5083822;28;20132;-58
2022/08/14 00:27:46;;;;;;;13.63;6.70;;;;;;;23.42;42.26;100749.44;5093689;28;20043;-58
2022/08/14 00:30:14;;;;;;;11.30;6.38;;;;;;;23.41;42.88;100734.25;5094308;28;20044;-58
2022/08/14 00:32:41;;;;;;;15.02;6.50;;;;;;;23.37;43.37;100741.22;5094846;28;20055;-58
2022/08/14 00:35:09;;;;;;;10.88;6.45;;;;;;;23.35;43.67;100732.50;5095067;28;20048;-58
2022/08/14 00:37:39;;;;;;;15.10;6.82;;;;;;;23.28;43.18;100739.94;5094931;28;20071;-58
2022/08/14 00:40:09;;;;;;;12.48;6.95;;;;;;;23.34;44.49;100736.28;5094818;28;20043;-58
2022/08/14 00:42:36;;;;;;;15.27;6.28;;;;;;;23.35;44.82;100730.63;5094762;28;20044;-58
2022/08/14 00:45:06;;;;;;;10.95;6.60;;;;;;;23.30;44.75;100725.13;5095094;28;20079;-58
2022/08/14 00:47:34;;;;;;;11.55;7.10;;;;;;;23.34;44.44;100731.69;5094378;28;20048;-58
2022/08/14 00:50:03;;;;;;;11.02;6.82;;;;;;;23.31;44.72;100729.47;5094605;28;20067;-58
2022/08/14 00:52:30;;;;;;;14.48;7.32;;;;;;;23.34;45.25;100720.88;5074285;28;20190;-58
2022/08/14 00:54:58;;;;;;;13.38;6.88;;;;;;;23.32;45.38;100725.72;5074493;28;20040;-58
2022/08/14 00:57:27;;;;;;;16.08;6.63;;;;;;;23.23;44.74;100726.28;5074042;28;20527;-58
2022/08/14 00:59:55;;;;;;;14.07;7.18;;;;;;;23.21;45.12;100721.13;5074504;28;20067;-58
2022/08/14 01:02:23;;;;;;;15.25;6.78;;;;;;;23.08;45.37;100705.16;5071647;28;20150;-58
2022/08/14 01:04:54;;;;;;;13.65;6.80;;;;;;;23.02;45.38;100703.38;5073922;28;20059;-58
2022/08/14 01:07:22;;;;;;;16.75;7.15;;;;;;;23.05;45.96;100700.22;5073329;28;20048;-58
2022/08/14 01:09:54;;;;;;;12.68;7.13;;;;;;;22.98;47.36;100698.44;5074181;28;20083;-58
2022/08/14 01:12:23;;;;;;;12.60;7.28;;;;;;;22.87;46.54;100691.16;5074141;28;20078;-58
2022/08/14 01:14:51;;;;;;;21.42;7.88;;;;;;;22.95;46.56;100687.28;5073754;28;20524;-58
2022/08/14 01:17:18;;;;;;;13.23;7.65;;;;;;;22.97;47.35;100693.25;5073697;28;20045;-58
2022/08/14 01:22:32;;;;;;;13.65;7.18;;;;;;;22.91;47.67;100683.41;5072579;28;20052;-58
2022/08/14 01:24:59;;;;;;;15.13;8.05;;;;;;;22.87;47.21;100679.53;5072485;28;20494;-58
2022/08/14 01:27:27;;;;;;;13.07;7.40;;;;;;;22.89;47.93;100677.41;5073473;28;20040;-58
2022/08/14 01:29:56;;;;;;;17.10;7.50;;;;;;;22.78;47.77;100677.19;5073532;28;20041;-58
2022/08/14 01:32:23;;;;;;;11.57;7.15;;;;;;;22.76;48.32;100675.78;5073778;28;20048;-58
2022/08/14 01:34:54;;;;;;;15.68;7.72;;;;;;;22.71;47.99;100667.56;5072902;28;20447;-58
2022/08/14 01:37:24;;;;;;;15.02;8.05;;;;;;;22.75;48.29;100663.31;5073423;28;20039;-58
2022/08/14 01:39:51;;;;;;;14.10;7.43;;;;;;;22.69;48.33;100661.56;5073532;28;20433;-58
2022/08/14 01:42:18;;;;;;;16.23;7.57;;;;;;;22.68;49.26;100657.19;5072583;28;20528;-58
2022/08/14 01:44:49;;;;;;;15.23;7.72;;;;;;;22.64;48.96;100645.22;5073021;28;20040;-58
2022/08/14 01:47:17;;;;;;;;;;;;;;;22.64;49.55;100645.22;5074140;28;20474;-58
2022/08/14 01:49:44;;;;;;;14.68;7.38;;;;;;;22.65;49.38;100642.28;5073294;28;19970;-58
2022/08/14 01:52:12;;;;;;;14.60;7.95;;;;;;;22.58;49.53;100637.00;5091455;28;20128;-58
2022/08/14 01:54:40;;;;;;;12.50;7.53;;;;;;;22.53;49.65;100644.16;5093127;28;20450;-58
2022/08/14 01:57:10;;;;;;;13.48;7.93;;;;;;;22.51;50.14;100638.19;5093756;28;20040;-58
2022/08/14 01:59:39;;;;;;;19.42;7.45;;;;;;;22.51;49.84;100630.06;5093325;28;20052;-58
2022/08/14 02:02:13;;;;;;;16.42;8.07;;;;;;;22.46;50.65;100628.06;5092732;28;20066;-58
2022/08/14 02:04:40;;;;;;;16.30;8.15;;;;;;;22.45;51.03;100622.88;5093651;28;20044;-57
2022/08/14 02:07:08;;;;;;;14.75;8.68;;;;;;;22.43;51.06;100620.44;5093585;28;20464;-58
2022/08/14 02:09:37;;;;;;;18.95;9.02;;;;;;;22.47;51.05;100627.03;5093524;28;20051;-58
2022/08/14 02:12:06;;;;;;;18.48;8.77;;;;;;;22.48;51.52;100622.44;5093556;28;20087;-58
2022/08/14 02:14:34;;;;;;;15.32;8.70;;;;;;;22.50;51.70;100618.41;5093050;28;20468;-58
2022/08/14 02:17:01;;;;;;;15.15;8.80;;;;;;;22.52;51.83;100623.59;5093455;28;20097;-57
2022/08/14 02:19:30;;;;;;;15.32;8.82;;;;;;;22.49;51.82;100624.91;5097235;28;20044;-57
2022/08/14 02:21:58;;;;;;;15.27;8.35;;;;;;;22.52;52.10;100620.88;5097379;28;20386;-58
2022/08/14 02:24:29;;;;;;;17.85;9.23;;;;;;;22.56;52.46;100622.09;4965883;28;20501;-57
2022/08/14 02:26:59;;;;;;;13.98;9.18;;;;;;;22.55;52.79;100618.53;5097394;28;20040;-58
2022/08/14 02:29:30;;;;;;;14.32;9.38;;;;;;;22.62;52.77;100623.81;5097187;28;20044;-58
2022/08/14 02:32:00;;;;;;;19.08;9.05;;;;;;;22.64;52.75;100629.81;5097345;28;20097;-58
2022/08/14 02:34:31;;;;;;;12.77;8.93;;;;;;;22.59;52.08;100630.53;5096946;28;20036;-57
2022/08/14 02:37:01;;;;;;;16.30;9.10;;;;;;;22.64;52.39;100624.41;5097297;28;20489;-57
2022/08/14 02:39:34;;;;;;;16.75;9.68;;;;;;;22.55;52.87;100626.66;5097100;28;20043;-58
2022/08/14 02:42:01;;;;;;;12.93;8.32;;;;;;;22.64;52.81;100627.13;5097170;28;20143;-57
2022/08/14 02:44:28;;;;;;;17.30;9.35;;;;;;;22.59;53.01;100629.69;5097129;28;20044;-58
2022/08/14 02:46:56;;;;;;;17.13;8.93;;;;;;;22.52;53.13;100629.00;5096719;28;20043;-57
2022/08/14 02:49:27;;;;;;;17.33;9.30;;;;;;;22.58;52.33;100630.78;5096994;28;20044;-57
2022/08/14 02:51:56;;;;;;;14.65;9.10;;;;;;;22.46;53.29;100629.94;5096623;28;20447;-57
2022/08/14 02:54:25;;;;;;;15.25;9.43;;;;;;;22.37;53.47;100633.00;5097184;28;20075;-57
2022/08/14 02:56:55;;;;;;;12.98;8.82;;;;;;;22.34;54.01;100621.84;5096779;28;20036;-57
2022/08/14 02:59:28;;;;;;;15.30;9.30;;;;;;;22.23;54.28;100624.28;5096631;28;20496;-57
2022/08/14 03:01:56;;;;;;;15.75;9.52;;;;;;;22.16;54.53;100622.75;5096378;28;20446;-57
2022/08/14 03:04:27;;;;;;;15.80;8.98;;;;;;;22.17;55.21;100630.59;5095881;28;20440;-58
2022/08/14 03:06:54;;;;;;;16.80;9.48;;;;;;;22.12;54.76;100630.50;5096760;28;20044;-57
2022/08/14 03:09:21;;;;;;;15.10;9.40;;;;;;;22.11;55.23;100628.03;5096597;28;20075;-57
2022/08/14 03:11:48;;;;;;;14.52;9.27;;;;;;;22.10;55.32;100623.69;5096666;28;20102;-58
2022/08/14 03:14:15;;;;;;;16.58;9.32;;;;;;;22.09;55.82;100620.16;5096428;28;20067;-57
2022/08/14 03:16:44;;;;;;;15.57;9.35;;;;;;;22.09;55.44;100624.75;5096248;28;20086;-58
2022/08/14 03:19:10;;;;;;;15.32;9.55;;;;;;;22.01;55.88;100621.34;5096422;28;20072;-57
2022/08/14 03:21:38;;;;;;;20.67;9.27;;;;;;;21.94;57.07;100611.66;5096372;28;20046;-58
2022/08/14 03:24:10;;;;;;;14.52;9.90;;;;;;;21.94;56.71;100611.66;4967804;28;20109;-57
2022/08/14 03:26:39;;;;;;;17.42;9.70;;;;;;;21.92;56.72;100613.78;5096366;28;20040;-58
2022/08/14 03:29:07;;;;;;;19.17;10.20;;;;;;;21.93;56.94;100612.75;5095442;28;20048;-57
2022/08/14 03:31:35;;;;;;;17.50;10.30;;;;;;;21.88;57.57;100618.00;5095875;28;20040;-57
2022/08/14 03:34:03;;;;;;;16.98;10.50;;;;;;;21.85;57.58;100619.31;5095596;28;20160;-58
2022/08/14 03:36:31;;;;;;;16.65;10.38;;;;;;;21.73;57.85;100605.75;5096225;28;20118;-58
2022/08/14 03:38:58;;;;;;;15.23;9.98;;;;;;;21.74;57.77;100604.72;5096799;28;20117;-57
2022/08/14 03:41:26;;;;;;;17.38;9.95;;;;;;;21.75;57.80;100602.84;5083304;28;20497;-57
2022/08/14 03:43:56;;;;;;;17.15;9.57;;;;;;;21.71;58.18;100609.75;5096106;28;20056;-57
2022/08/14 03:46:26;;;;;;;16.83;10.27;;;;;;;21.70;57.80;100603.53;5095889;28;20052;-57
2022/08/14 03:48:53;;;;;;;15.32;10.25;;;;;;;21.66;58.28;100605.84;5095913;28;20048;-58
2022/08/14 03:51:27;;;;;;;17.73;9.82;;;;;;;21.66;58.29;100610.44;5095868;28;20044;-58
2022/08/14 03:53:56;;;;;;;18.98;10.65;;;;;;;21.63;57.47;100608.22;5096094;28;20052;-57
2022/08/14 03:56:25;;;;;;;15.77;10.15;;;;;;;21.57;57.78;100601.03;5095386;28;20126;-58
2022/08/14 03:58:57;;;;;;;16.05;10.25;;;;;;;21.39;58.42;100608.13;5095664;28;20086;-57
2022/08/14 04:01:25;;;;;;;15.88;9.65;;;;;;;21.31;58.80;100611.13;5095195;28;20055;-58
2022/08/14 04:03:56;;;;;;;16.75;10.38;;;;;;;21.31;59.46;100594.94;5094894;28;20136;-58
2022/08/14 04:06:23;;;;;;;16.75;10.70;;;;;;;21.32;58.98;100599.28;5095474;28;20052;-58
2022/08/14 04:08:51;;;;;;;16.25;9.90;;;;;;;21.30;58.78;100598.66;5095446;28;20446;-58
2022/08/14 04:11:18;;;;;;;15.00;10.60;;;;;;;21.29;59.17;100595.16;5095410;28;20118;-58
2022/08/14 04:13:45;;;;;;;15.77;10.52;;;;;;;21.28;59.22;100590.00;5095694;28;20481;-58
2022/08/14 04:16:19;;;;;;;16.85;10.90;;;;;;;21.28;58.91;100596.22;5095381;28;20448;-58
2022/08/14 04:18:51;;;;;;;18.02;11.38;;;;;;;21.21;60.11;100595.50;5095690;28;20584;-58
2022/08/14 04:21:18;;;;;;;;;;;;;;;21.22;60.07;100585.50;5095663;28;20052;-57
2022/08/14 04:23:46;;;;;;;18.77;10.77;;;;;;;21.20;59.46;100593.03;4965606;28;20420;-58
2022/08/14 04:26:15;;;;;;;21.77;10.52;;;;;;;21.15;59.17;100590.19;5094769;28;20047;-58
2022/08/14 04:28:42;;;;;;;19.52;11.15;;;;;;;21.16;59.68;100597.22;5095254;28;20036;-58
2022/08/14 04:31:09;;;;;;;19.50;10.73;;;;;;;21.15;59.89;100596.38;5094136;28;20044;-58
2022/08/14 04:33:36;;;;;;;19.52;11.57;;;;;;;21.17;59.94;100596.16;5095082;28;20070;-58
2022/08/14 04:36:04;;;;;;;31.67;12.32;;;;;;;21.16;60.33;100591.84;5094927;28;20048;-58
2022/08/14 04:44:05;;;;;;;18.90;10.65;;;;;;;21.22;60.14;100591.72;5094870;28;20135;-57
2022/08/14 04:46:34;;;;;;;17.23;11.15;;;;;;;21.23;60.35;100585.28;5094448;28;20040;-57
2022/08/14 04:49:03;;;;;;;17.10;11.32;;;;;;;21.22;59.87;100594.41;5094621;28;20036;-57
2022/08/14 04:51:31;;;;;;;16.90;11.27;;;;;;;21.25;60.29;100579.69;5094300;28;20040;-58
2022/08/14 04:54:00;;;;;;;16.20;10.80;;;;;;;21.26;59.83;100576.72;5094705;28;20044;-57
2022/08/14 04:56:27;;;;;;;21.75;11.05;;;;;;;21.27;59.90;100581.06;5093044;28;20451;-58
2022/08/14 04:58:59;;;;;;;19.52;9.95;;;;;;;21.35;59.59;100582.63;5094338;28;20085;-57
2022/08/14 05:01:26;;;;;;;14.02;10.85;;;;;;;21.30;59.77;100577.09;5094066;28;20048;-57
2022/08/14 05:03:53;;;;;;;21.63;11.00;;;;;;;21.31;60.05;100567.97;5093778;28;20409;-58
2022/08/14 05:06:20;;;;;;;16.65;10.77;;;;;;;21.31;59.87;100570.66;5094360;28;20040;-57
2022/08/14 05:08:47;;;;;;;17.50;10.85;;;;;;;21.35;59.84;100579.13;5094347;28;20062;-57
2022/08/14 05:11:14;;;;;;;18.77;10.32;;;;;;;21.38;59.72;100584.06;5094389;28;20508;-57
2022/08/14 05:13:42;;;;;;;16.40;10.75;;;;;;;21.50;59.95;100584.94;5094004;28;20040;-57
2022/08/14 05:16:30;;;;;;;18.77;10.80;;;;;;;21.42;59.50;100575.25;5093358;28;20040;-58
2022/08/14 05:18:57;;;;;;;17.92;11.18;;;;;;;21.51;59.77;100572.28;5093933;28;20060;-57
2022/08/14 05:21:25;;;;;;;16.45;10.98;;;;;;;21.46;59.04;100572.97;5094269;28;20051;-57
2022/08/14 05:23:53;;;;;;;17.15;10.10;;;;;;;21.58;59.43;100571.13;4969189;28;20090;-57
2022/08/14 05:26:20;;;;;;;21.63;11.30;;;;;;;21.58;58.90;100571.13;5094289;28;20437;-57
2022/08/14 05:28:47;;;;;;;22.55;11.07;;;;;;;21.64;59.12;100558.56;5093889;28;20068;-57
2022/08/14 05:31:16;;;;;;;16.42;10.82;;;;;;;21.66;59.30;100561.84;5093319;28;20044;-57
2022/08/14 05:33:44;;;;;;;16.38;10.65;;;;;;;21.65;59.23;100560.22;5094012;28;20051;-57
2022/08/14 05:36:12;;;;;;;20.60;11.85;;;;;;;21.65;59.33;100557.53;5094200;28;20093;-57
2022/08/14 05:38:43;;;;;;;20.02;10.50;;;;;;;21.62;59.50;100552.59;5093410;28;20033;-57
2022/08/14 05:41:12;;;;;;;;;;;;;;;21.65;59.09;100544.03;5093948;28;20123;-58
2022/08/14 05:43:40;;;;;;;21.02;11.02;;;;;;;21.73;58.60;100546.38;5093731;28;20018;-58
2022/08/14 05:46:10;;;;;;;18.70;10.68;;;;;;;21.77;59.43;100544.84;5093763;28;20417;-58
2022/08/14 05:48:38;;;;;;;18.02;10.75;;;;;;;21.79;59.17;100542.78;5093867;28;20044;-58
2022/08/14 05:51:04;;;;;;;19.70;10.68;;;;;;;21.79;59.00;100545.47;5093920;28;20075;-58
2022/08/14 05:53:31;;;;;;;18.13;10.48;;;;;;;21.85;59.31;100547.22;5093181;28;20047;-58
2022/08/14 05:55:58;;;;;;;16.45;9.93;;;;;;;21.91;59.61;100545.47;5093476;28;20072;-57
2022/08/14 05:58:25;;;;;;;18.13;10.75;;;;;;;21.96;59.22;100544.78;5093491;28;20050;-57
2022/08/14 06:00:54;;;;;;;21.42;11.57;;;;;;;21.97;59.16;100539.13;5093196;28;20051;-57
2022/08/14 06:03:22;;;;;;;20.15;10.98;;;;;;;22.00;58.83;100535.94;5093237;28;20060;-58
2022/08/14 06:05:52;;;;;;;18.90;10.77;;;;;;;22.02;58.71;100538.44;5093223;28;20105;-58
2022/08/14 06:08:25;;;;;;;14.73;10.70;;;;;;;22.12;58.88;100530.56;5093352;28;20044;-57
2022/08/14 06:10:55;;;;;;;16.98;10.20;;;;;;;22.16;58.73;100536.31;5093188;28;20055;-58
2022/08/14 06:13:22;;;;;;;18.88;10.50;;;;;;;22.17;58.27;100537.94;5093622;28;20044;-58
2022/08/14 06:15:49;;;;;;;18.80;11.15;;;;;;;22.17;58.17;100535.25;5093284;28;20052;-58
2022/08/14 06:18:17;;;;;;;15.95;10.98;;;;;;;22.22;57.72;100540.75;5093294;28;20044;-58
2022/08/14 06:20:44;;;;;;;15.68;10.77;;;;;;;22.26;57.96;100539.25;5093160;28;20064;-58
2022/08/14 06:23:11;;;;;;;16.45;10.52;;;;;;;22.33;58.63;100534.56;4961355;28;20575;-58
2022/08/14 06:25:37;;;;;;;18.00;10.70;;;;;;;22.47;57.19;100545.94;5093513;28;20052;-57
2022/08/14 06:28:04;;;;;;;18.98;10.75;;;;;;;22.35;57.17;100539.72;5093157;28;20048;-58
2022/08/14 06:30:33;;;;;;;19.88;11.77;;;;;;;22.40;57.27;100535.25;5093270;28;20504;-58
2022/08/14 06:33:00;;;;;;;15.52;11.20;;;;;;;22.40;57.07;100534.44;5093274;28;20048;-58
2022/08/14 06:35:29;;;;;;;16.40;11.07;;;;;;;22.52;58.01;100545.22;5093068;28;20070;-57
2022/08/14 06:37:58;;;;;;;17.13;10.93;;;;;;;22.59;56.95;100540.50;5093167;28;20127;-57
2022/08/14 06:40:29;;;;;;;17.88;10.30;;;;;;;22.63;57.43;100544.38;5093272;28;20048;-58
2022/08/14 06:43:01;;;;;;;19.75;11.02;;;;;;;22.68;57.25;100535.53;5093131;28;20048;-57
2022/08/14 06:45:28;;;;;;;;;;;;;;;22.78;57.32;100535.75;5093596;28;20047;-58
2022/08/14 06:47:55;;;;;;;17.50;10.50;;;;;;;22.75;56.82;100534.34;5093098;28;19973;-58
2022/08/14 06:50:22;;;;;;;18.50;11.15;;;;;;;22.81;56.75;100522.59;5092511;28;20123;-58
2022/08/14 06:52:49;;;;;;;17.73;10.95;;;;;;;22.82;57.09;100526.09;5092691;28;20493;-58
2022/08/14 06:55:17;;;;;;;18.38;11.02;;;;;;;22.87;56.95;100526.19;5093168;28;20439;-58
2022/08/14 06:57:48;;;;;;;18.63;10.73;;;;;;;22.86;57.00;100529.16;5092800;28;20150;-58
2022/08/14 07:00:22;;;;;;;18.67;11.15;;;;;;;22.87;56.49;100520.78;5092910;28;20044;-58
2022/08/14 07:05:45;;;;;;;16.75;10.45;;;;;;;23.11;55.49;100518.84;5091922;28;20040;-58
2022/08/14 07:08:14;;;;;;;29.40;11.13;;;;;;;23.11;55.72;100510.72;5090563;28;20032;-58
2022/08/14 07:10:42;;;;;;;18.75;10.45;;;;;;;23.29;55.43;100515.09;5088547;28;20063;-58
2022/08/14 07:13:11;;;;;;;22.00;10.80;;;;;;;23.18;55.57;100510.56;5092715;28;20054;-58
2022/08/14 07:15:38;;;;;;;18.58;10.77;;;;;;;23.26;55.49;100503.94;5096553;28;20090;-58
2022/08/14 07:18:06;;;;;;;23.40;10.50;;;;;;;23.38;55.23;100505.50;5094642;28;20044;-59
2022/08/14 07:20:33;;;;;;;17.90;10.50;;;;;;;23.45;55.06;100502.66;5077676;28;20542;-58
2022/08/14 07:23:01;;;;;;;17.65;10.95;;;;;;;23.51;54.89;100500.84;5050742;28;21013;-58
2022/08/14 07:25:33;;;;;;;15.75;10.70;;;;;;;23.54;54.62;100500.38;5079062;28;20111;-58
2022/08/14 07:28:08;;;;;;;16.98;10.18;;;;;;;23.64;54.21;100507.81;5076174;28;20041;-58
2022/08/14 07:30:35;;;;;;;19.33;11.80;;;;;;;23.66;54.60;100503.78;5076601;28;20040;-58
2022/08/14 07:33:02;;;;;;;18.02;10.90;;;;;;;23.65;54.60;100496.75;5075801;28;20056;-58
2022/08/14 07:35:30;;;;;;;17.67;9.80;;;;;;;23.74;54.07;100499.88;5075488;28;20041;-58
2022/08/14 07:37:57;;;;;;;17.95;10.75;;;;;;;23.77;54.51;100493.94;5076379;28;20117;-57
2022/08/14 07:40:24;;;;;;;13.40;9.75;;;;;;;23.87;54.32;100498.75;5076278;28;20133;-59
2022/08/14 07:42:51;;;;;;;14.75;10.18;;;;;;;24.04;53.20;100496.00;5075638;28;20106;-58
2022/08/14 07:45:18;;;;;;;19.15;10.05;;;;;;;24.13;53.39;100492.59;5075541;28;20098;-57
2022/08/14 07:47:44;;;;;;;15.35;9.50;;;;;;;24.25;52.61;100489.78;5081877;28;20094;-58
2022/08/14 07:50:15;;;;;;;16.63;10.27;;;;;;;24.22;52.50;100479.44;5094622;28;20534;-58
2022/08/14 07:52:46;;;;;;;18.17;9.60;;;;;;;24.28;52.83;100488.44;5087838;28;20493;-58
2022/08/14 07:55:14;;;;;;;18.10;10.50;;;;;;;24.38;52.38;100495.91;5084456;28;20036;-58
2022/08/14 07:57:43;;;;;;;15.07;9.13;;;;;;;24.53;51.44;100487.97;5081918;28;20067;-58
2022/08/14 08:00:12;;;;;;;17.95;10.05;;;;;;;24.58;51.70;100477.19;5083150;28;20044;-58
2022/08/14 08:02:53;;;;;;;16.17;10.30;;;;;;;24.59;51.65;100473.41;5108603;27;20746;-56
2022/08/14 08:05:23;;;;;;;20.93;12.33;;;;;;;24.59;52.15;100478.00;5094005;28;20102;-57
2022/08/14 08:07:52;;;;;;;14.50;9.40;;;;;;;24.85;50.41;100482.66;5090692;28;20617;-57
2022/08/14 08:10:38;;;;;;;16.65;10.07;;;;;;;24.92;51.10;100479.72;5088782;28;20086;-56
2022/08/14 08:13:13;;;;;;;15.75;9.50;;;;;;;25.04;50.56;100474.16;5090507;28;20068;-57
2022/08/14 08:15:43;;;;;;;14.88;9.40;;;;;;;25.05;50.63;100490.19;5090421;28;20044;-57
2022/08/14 08:18:12;;;;;;;14.90;9.27;;;;;;;25.15;50.16;100483.19;5095914;28;20032;-56
2022/08/14 08:20:41;;;;;;;15.38;8.95;;;;;;;25.12;49.97;100497.28;5107605;28;20044;-56
2022/08/14 08:23:09;;;;;;;14.23;9.48;;;;;;;25.15;50.33;100478.59;5056451;28;20040;-56
2022/08/14 08:25:38;;;;;;;14.25;9.68;;;;;;;25.23;49.95;100477.28;5084827;28;20032;-56
2022/08/14 08:28:10;;;;;;;16.83;9.47;;;;;;;25.27;49.59;100478.47;5086147;28;20127;-56
2022/08/14 08:30:39;;;;;;;13.57;8.85;;;;;;;25.43;49.18;100482.94;5083681;28;20290;-56
2022/08/14 08:33:09;;;;;;;15.57;9.10;;;;;;;25.51;48.78;100478.94;5077440;28;20044;-56
2022/08/14 08:35:37;;;;;;;14.20;9.07;;;;;;;25.64;48.23;100478.47;5070225;28;20044;-56
2022/08/14 08:38:09;;;;;;;15.68;9.07;;;;;;;25.87;48.12;100479.19;5085686;28;20040;-55
2022/08/14 08:40:41;;;;;;;16.70;9.13;;;;;;;26.00;47.09;100476.00;5089504;28;20185;-57
2022/08/14 08:48:56;;;;;;;20.15;9.15;;;;;;;26.27;46.97;100469.63;5110710;27;20383;-55
2022/08/14 08:51:39;;;;;;;15.40;8.90;;;;;;;26.23;47.36;100469.34;5110626;28;20039;-55
2022/08/14 08:54:11;;;;;;;16.13;8.98;;;;;;;26.38;47.25;100470.50;5111056;28;20101;-57
2022/08/14 08:56:43;;;;;;;17.25;9.30;;;;;;;26.48;45.72;100465.06;5111003;28;20040;-56
2022/08/14 08:59:27;;;;;;;12.75;8.63;;;;;;;26.66;45.87;100463.00;5111008;28;20112;-56
2022/08/14 09:02:03;;;;;;;18.27;9.02;;;;;;;26.84;45.43;100458.94;5110847;28;20396;-56
2022/08/14 09:04:34;;;;;;;16.55;8.93;;;;;;;26.91;44.79;100454.06;5110151;28;20408;-56
2022/08/14 09:07:02;;;;;;;15.45;8.23;;;;;;;26.95;44.09;100453.25;5111003;28;20076;-56
2022/08/14 09:09:31;;;;;;;13.35;7.80;;;;;;;26.94;43.42;100448.91;5110593;28;20446;-56
2022/08/14 09:11:59;;;;;;;13.18;8.00;;;;;;;26.98;42.84;100451.91;5110842;28;20044;-57
2022/08/14 09:14:29;;;;;;;12.38;7.57;;;;;;;27.21;43.44;100461.44;5110682;28;20101;-56
2022/08/14 09:16:58;;;;;;;16.23;8.00;;;;;;;27.40;42.05;100461.75;5110643;28;20109;-56
2022/08/14 09:19:26;;;;;;;15.35;7.93;;;;;;;27.35;40.98;100459.00;5110621;28;20047;-56
2022/08/14 09:21:53;;;;;;;14.07;8.73;;;;;;;27.47;41.27;100459.56;5110774;28;20485;-56
2022/08/14 09:24:21;;;;;;;12.88;8.20;;;;;;;27.69;42.56;100448.34;4984643;28;20630;-56
2022/08/14 09:26:48;;;;;;;15.93;8.15;;;;;;;27.78;41.31;100451.34;5110391;28;20044;-56
2022/08/14 09:29:16;;;;;;;17.15;7.90;;;;;;;27.90;41.18;100451.84;5110296;28;20134;-56
2022/08/14 09:31:47;;;;;;;14.45;7.88;;;;;;;28.02;40.53;100434.41;5080500;28;20043;-56
2022/08/14 09:34:38;;;;;;;13.40;7.35;;;;;;;27.95;38.22;100431.97;5109723;28;20044;-57
2022/08/14 09:37:20;;;;;;;16.63;7.60;;;;;;;28.05;38.21;100429.22;5110393;28;20393;-57
2022/08/14 09:42:51;;;;;;;11.95;7.60;;;;;;;28.36;39.55;100422.78;5070413;28;20745;-56
2022/08/14 09:45:27;;;;;;;13.52;7.47;;;;;;;28.69;38.41;100424.81;5070594;28;20040;-56
2022/08/14 09:47:56;;;;;;;15.93;7.80;;;;;;;28.90;36.81;100405.56;5070738;28;20044;-56
2022/08/14 09:50:27;;;;;;;12.18;7.25;;;;;;;28.94;37.80;100408.53;5070075;28;20114;-56
2022/08/14 09:52:57;;;;;;;10.50;6.88;;;;;;;28.83;36.89;100399.59;5070424;28;20053;-56
2022/08/14 09:55:26;;;;;;;11.20;7.18;;;;;;;28.88;36.39;100392.19;5070143;28;20051;-56
2022/08/14 09:58:08;;;;;;;13.48;7.18;;;;;;;29.25;36.12;100390.81;5070127;28;20053;-56
2022/08/14 10:06:05;;;;;;;11.88;6.38;;;;;;;29.59;34.28;100397.31;5110830;27;20355;-55
2022/08/14 10:09:07;;;;;;;12.07;6.32;;;;;;;29.73;33.75;100403.72;5111345;28;20528;-57
2022/08/14 10:11:37;;;;;;;10.85;6.40;;;;;;;30.06;33.82;100403.91;5111021;28;20097;-56
2022/08/14 10:14:17;;;;;;;9.98;6.32;;;;;;;30.27;32.99;100396.25;5111080;28;20036;-56
2022/08/14 10:16:51;;;;;;;11.15;6.50;;;;;;;30.15;32.87;100390.41;5110776;28;20044;-56
2022/08/14 10:19:19;;;;;;;14.82;6.10;;;;;;;30.01;32.96;100390.28;5111099;28;20044;-56
2022/08/14 10:22:06;;;;;;;11.95;6.55;;;;;;;29.72;33.13;100382.94;5110954;28;20046;-56
2022/08/14 10:24:39;;;;;;;16.05;6.15;;;;;;;29.89;34.26;100384.41;5011824;28;20036;-56
2022/08/14 10:27:23;;;;;;;11.80;5.72;;;;;;;30.08;32.19;100377.06;5110689;28;20048;-56
2022/08/14 10:29:53;;;;;;;13.30;5.25;;;;;;;30.22;31.25;100371.69;5110891;28;20048;-56
2022/08/14 10:32:21;;;;;;;12.27;5.20;;;;;;;30.32;30.31;100365.25;5110037;28;20079;-56
2022/08/14 10:34:49;;;;;;;11.20;5.60;;;;;;;30.28;31.36;100364.22;5110626;28;20032;-56
2022/08/14 10:37:17;;;;;;;12.63;5.50;;;;;;;30.18;31.77;100360.53;5110447;28;20048;-56
2022/08/14 10:39:57;;;;;;;10.65;5.50;;;;;;;30.20;31.54;100362.97;5110342;28;20043;-56
2022/08/14 10:42:35;;;;;;;15.05;5.75;;;;;;;30.30;31.92;100349.13;5110246;28;20039;-57
2022/08/14 10:45:19;;;;;;;10.50;6.10;;;;;;;30.43;31.35;100361.28;5110655;28;20127;-57
2022/08/14 10:47:51;;;;;;;12.10;5.97;;;;;;;30.63;31.84;100357.44;5110464;28;20055;-56
2022/08/14 10:50:29;;;;;;;12.38;5.45;;;;;;;30.68;31.50;100345.59;5109368;28;20043;-56
2022/08/14 10:52:58;;;;;;;10.80;5.18;;;;;;;30.94;30.84;100346.00;5110340;28;20047;-56
2022/08/14 10:55:38;;;;;;;14.20;5.78;;;;;;;31.15;30.73;100349.22;5110452;28;20065;-56
2022/08/14 10:58:10;;;;;;;15.85;5.53;;;;;;;31.10;29.93;100338.34;5110090;28;20052;-56
2022/08/14 11:00:39;;;;;;;10.82;5.40;;;;;;;31.12;30.51;100338.84;5109857;28;20127;-57
2022/08/14 11:03:12;;;;;;;14.55;6.07;;;;;;;31.12;30.39;100341.59;5110404;28;20105;-57
2022/08/14 11:05:42;;;;;;;14.43;5.45;;;;;;;31.18;30.08;100343.09;5109119;28;20509;-57
2022/08/14 11:08:10;;;;;;;11.38;5.68;;;;;;;31.24;29.93;100341.09;5110324;28;20050;-57
2022/08/14 11:13:26;;;;;;;11.15;5.40;;;;;;;31.49;29.39;100329.69;5111236;27;20387;-56
2022/08/14 11:15:55;;;;;;;10.40;5.70;;;;;;;31.07;29.68;100328.81;5111207;28;20114;-55
2022/08/14 11:18:22;;;;;;;11.02;5.30;;;;;;;31.28;30.03;100321.00;5110959;28;20085;-56
2022/08/14 11:20:54;;;;;;;11.38;5.60;;;;;;;31.22;30.50;100335.09;5111027;28;20089;-55
2022/08/14 11:23:27;;;;;;;11.32;5.68;;;;;;;31.19;29.49;100328.31;4980391;28;20051;-56
2022/08/14 11:25:56;;;;;;;9.80;4.90;;;;;;;31.09;29.97;100326.56;5099284;28;20052;-55
2022/08/14 11:28:25;;;;;;;11.07;5.30;;;;;;;31.29;29.42;100316.34;5097211;28;20082;-55
2022/08/14 11:30:55;;;;;;;8.77;5.40;;;;;;;31.35;29.08;100317.88;5110571;28;20054;-56
2022/08/14 11:33:23;;;;;;;9.68;5.10;;;;;;;31.33;29.51;100311.88;5107800;28;20367;-55
2022/08/14 11:35:50;;;;;;;12.45;5.38;;;;;;;31.16;29.50;100307.81;5110777;28;20052;-55
2022/08/14 11:38:20;;;;;;;46.83;32.42;;;;;;;31.25;29.71;100315.31;5105885;28;20080;-54
2022/08/14 11:40:47;;;;;;;19.83;7.57;;;;;;;31.61;28.63;100311.91;5090163;28;20399;-56
2022/08/14 11:43:15;;;;;;;11.75;5.57;;;;;;;31.86;28.84;100307.81;5093470;28;20044;-56
2022/08/14 11:45:47;;;;;;;10.35;5.60;;;;;;;32.00;28.49;100291.31;5098560;28;20098;-59
2022/08/14 11:48:17;;;;;;;13.88;5.22;;;;;;;32.18;27.56;100300.53;5108301;28;20058;-56
2022/08/14 11:50:45;;;;;;;11.48;5.72;;;;;;;31.98;27.71;100299.03;5109276;28;20043;-56
2022/08/14 11:53:27;;;;;;;11.55;4.72;;;;;;;32.22;27.90;100287.81;5110619;28;20104;-57